createdAt,value
2022-12-25T00:02:20.831Z,85.44
2022-12-25T00:04:47.505Z,85.29
2022-12-25T00:07:14.279Z,85.16
2022-12-25T00:09:40.906Z,85.12
2022-12-25T00:12:07.710Z,85.22
2022-12-25T00:14:34.535Z,85.73
2022-12-25T00:17:01.380Z,85.17
2022-12-25T00:19:28.030Z,85.41
2022-12-25T00:21:54.728Z,85.22
2022-12-25T00:24:21.343Z,85.61
2022-12-25T00:26:48.074Z,85.37
2022-12-25T00:29:14.907Z,85.22
2022-12-25T00:31:41.593Z,85.27
2022-12-25T00:34:08.277Z,85.86
2022-12-25T00:36:41.170Z,85.86
2022-12-25T00:39:08.450Z,85.33
2022-12-25T00:41:53.648Z,85.91
2022-12-25T00:44:20.682Z,85.84
2022-12-25T00:46:47.460Z,85.78
2022-12-25T00:49:14.254Z,85.55
2022-12-25T00:51:41.019Z,85.51
2022-12-25T00:54:08.638Z,85.59
2022-12-25T00:56:35.697Z,85.91
2022-12-25T00:59:02.425Z,85.84
2022-12-25T01:01:29.423Z,85.96
2022-12-25T01:03:56.264Z,85.57
2022-12-25T01:06:23.056Z,86.09
2022-12-25T01:09:09.370Z,86.03
2022-12-25T01:11:36.420Z,86.07
2022-12-25T01:14:03.182Z,85.75
2022-12-25T01:16:30.546Z,85.73
2022-12-25T01:18:57.357Z,86.16
2022-12-25T01:21:24.596Z,85.98
2022-12-25T01:23:52.639Z,86.23
2022-12-25T01:26:23.199Z,86.22
2022-12-25T01:28:51.121Z,85.90
2022-12-25T01:31:21.080Z,85.83
2022-12-25T01:33:48.752Z,86.30
2022-12-25T01:36:24.179Z,86.11
2022-12-25T01:38:52.486Z,85.94
2022-12-25T01:41:22.015Z,86.27
2022-12-25T01:44:05.794Z,86.07
2022-12-25T01:46:32.974Z,86.44
2022-12-25T01:49:04.963Z,86.02
2022-12-25T01:51:35.862Z,85.98
2022-12-25T01:54:07.226Z,86.26
2022-12-25T01:56:36.448Z,86.01
2022-12-25T01:59:06.425Z,86.40
2022-12-25T02:01:33.407Z,86.19
2022-12-25T02:04:09.322Z,86.11
2022-12-25T02:06:36.012Z,86.38
2022-12-25T02:09:03.124Z,85.96
2022-12-25T02:11:48.387Z,85.88
2022-12-25T02:14:15.078Z,85.91
2022-12-25T02:16:57.475Z,85.92
2022-12-25T02:20:02.980Z,86.12
2022-12-25T02:22:56.517Z,85.97
2022-12-25T02:25:56.818Z,86.27
2022-12-25T02:28:30.586Z,86.04
2022-12-25T02:31:03.576Z,86.14
2022-12-25T02:34:03.738Z,86.25
2022-12-25T02:36:51.158Z,86.03
2022-12-25T02:39:58.276Z,86.31
2022-12-25T02:42:55.225Z,86.27
2022-12-25T02:45:50.614Z,86.32
2022-12-25T02:48:39.877Z,86.22
2022-12-25T02:51:29.052Z,86.16
2022-12-25T02:54:17.357Z,85.86
2022-12-25T02:57:06.444Z,85.99
2022-12-25T02:59:56.510Z,85.87
2022-12-25T03:02:43.704Z,86.21
2022-12-25T03:05:33.868Z,85.94
2022-12-25T03:08:06.192Z,85.90
2022-12-25T03:10:54.074Z,86.09
2022-12-25T03:13:24.490Z,86.04
2022-12-25T03:16:10.158Z,85.96
2022-12-25T03:18:36.853Z,85.65
2022-12-25T03:21:21.982Z,85.91
2022-12-25T03:24:22.238Z,86.30
2022-12-25T03:26:55.185Z,85.68
2022-12-25T03:29:52.100Z,86.15
2022-12-25T03:32:38.282Z,85.83
2022-12-25T03:35:31.657Z,86.19
2022-12-25T03:38:19.718Z,86.01
2022-12-25T03:41:31.571Z,86.24
2022-12-25T03:44:22.346Z,85.91
2022-12-25T03:47:17.952Z,85.61
2022-12-25T03:50:08.512Z,86.16
2022-12-25T03:52:56.593Z,86.07
2022-12-25T03:55:43.865Z,86.00
2022-12-25T03:58:39.749Z,85.75
2022-12-25T04:01:25.109Z,85.93
2022-12-25T04:04:10.566Z,86.20
2022-12-25T04:06:55.985Z,86.02
2022-12-25T04:09:41.481Z,86.17
2022-12-25T04:12:26.720Z,86.17
2022-12-25T04:15:11.916Z,85.80
2022-12-25T04:17:57.596Z,86.00
2022-12-25T04:20:43.183Z,86.04
2022-12-25T04:23:28.726Z,85.87
2022-12-25T04:26:16.926Z,85.77
2022-12-25T04:29:02.434Z,85.72
2022-12-25T04:31:47.807Z,86.31
2022-12-25T04:34:33.283Z,85.67
2022-12-25T04:36:59.970Z,86.06
2022-12-25T04:39:26.952Z,86.17
2022-12-25T04:41:53.627Z,85.98
2022-12-25T04:44:20.297Z,85.84
2022-12-25T04:46:47.003Z,85.62
2022-12-25T04:49:13.726Z,85.82
2022-12-25T04:51:40.460Z,85.96
2022-12-25T04:54:07.152Z,86.10
2022-12-25T04:56:34.472Z,85.67
2022-12-25T04:59:03.365Z,86.07
2022-12-25T05:01:30.153Z,86.12
2022-12-25T05:03:57.005Z,85.52
2022-12-25T05:06:23.678Z,85.62
2022-12-25T05:08:50.431Z,86.18
2022-12-25T05:11:17.359Z,85.97
2022-12-25T05:13:44.618Z,86.08
2022-12-25T05:16:20.022Z,85.69
2022-12-25T05:18:50.842Z,85.38
2022-12-25T05:21:17.948Z,86.05
2022-12-25T05:23:50.796Z,85.78
2022-12-25T05:26:20.169Z,85.78
2022-12-25T05:28:47.005Z,85.52
2022-12-25T05:31:13.939Z,85.94
2022-12-25T05:33:41.032Z,85.54
2022-12-25T05:36:10.352Z,85.56
2022-12-25T05:38:37.561Z,85.53
2022-12-25T05:41:04.404Z,85.99
2022-12-25T05:43:31.242Z,85.39
2022-12-25T05:45:58.013Z,85.41
2022-12-25T05:48:24.678Z,85.39
2022-12-25T05:50:51.358Z,85.40
2022-12-25T05:53:18.055Z,85.78
2022-12-25T05:55:44.830Z,85.60
2022-12-25T05:58:12.717Z,85.95
2022-12-25T06:00:40.693Z,85.83
2022-12-25T06:03:07.467Z,85.39
2022-12-25T06:05:34.385Z,85.40
2022-12-25T06:08:01.118Z,85.59
2022-12-25T06:10:27.795Z,85.60
2022-12-25T06:12:54.924Z,85.82
2022-12-25T06:15:21.753Z,85.79
2022-12-25T06:17:48.477Z,85.49
2022-12-25T06:20:15.258Z,85.56
2022-12-25T06:22:41.897Z,85.87
2022-12-25T06:25:09.296Z,85.94
2022-12-25T06:27:35.997Z,85.63
2022-12-25T06:30:03.114Z,85.66
2022-12-25T06:32:29.880Z,85.70
2022-12-25T06:34:56.520Z,85.45
2022-12-25T06:37:23.252Z,85.45
2022-12-25T06:39:50.069Z,85.75
2022-12-25T06:42:16.726Z,85.86
2022-12-25T06:44:43.453Z,85.75
2022-12-25T06:47:10.342Z,85.86
2022-12-25T06:49:37.017Z,85.77
2022-12-25T06:52:03.690Z,85.80
2022-12-25T06:54:30.389Z,85.61
2022-12-25T06:56:57.087Z,85.88
2022-12-25T06:59:23.850Z,85.87
2022-12-25T07:01:53.709Z,85.57
2022-12-25T07:04:32.114Z,85.88
2022-12-25T07:07:08.412Z,86.08
2022-12-25T07:09:36.445Z,85.95
2022-12-25T07:12:13.795Z,85.70
2022-12-25T07:14:40.582Z,86.06
2022-12-25T07:17:07.428Z,85.83
2022-12-25T07:19:35.339Z,85.52
2022-12-25T07:22:05.054Z,85.50
2022-12-25T07:24:31.745Z,85.64
2022-12-25T07:26:58.388Z,85.85
2022-12-25T07:29:25.104Z,85.56
2022-12-25T07:31:51.801Z,85.94
2022-12-25T07:34:18.780Z,85.59
2022-12-25T07:36:46.067Z,85.48
2022-12-25T07:39:13.183Z,85.57
2022-12-25T07:41:40.322Z,85.71
2022-12-25T07:44:07.058Z,85.24
2022-12-25T07:46:33.783Z,85.24
2022-12-25T07:49:01.003Z,85.39
2022-12-25T07:51:30.174Z,85.50
2022-12-25T07:53:57.408Z,85.80
2022-12-25T07:56:24.405Z,85.68
2022-12-25T07:58:51.114Z,85.69
2022-12-25T08:01:21.430Z,85.39
2022-12-25T08:03:55.953Z,85.37
2022-12-25T08:06:25.028Z,85.50
2022-12-25T08:08:51.754Z,85.90
2022-12-25T08:11:18.470Z,85.78
2022-12-25T08:13:45.115Z,85.56
2022-12-25T08:16:12.019Z,85.48
2022-12-25T08:18:39.514Z,85.28
2022-12-25T08:21:12.302Z,85.60
2022-12-25T08:23:41.857Z,85.11
2022-12-25T08:26:13.403Z,85.40
2022-12-25T08:28:40.209Z,84.71
2022-12-25T08:31:14.682Z,85.18
2022-12-25T08:33:41.877Z,84.87
2022-12-25T08:36:11.155Z,85.23
2022-12-25T08:38:38.923Z,85.33
2022-12-25T08:41:06.227Z,84.78
2022-12-25T08:43:32.946Z,84.68
2022-12-25T08:45:59.894Z,84.69
2022-12-25T08:48:27.836Z,84.75
2022-12-25T08:50:54.780Z,85.06
2022-12-25T08:53:22.131Z,84.61
2022-12-25T08:55:48.851Z,84.65
2022-12-25T08:58:16.604Z,84.47
2022-12-25T09:00:43.625Z,84.50
2022-12-25T09:03:10.500Z,84.33
2022-12-25T09:05:37.964Z,84.74
2022-12-25T09:08:04.922Z,84.63
2022-12-25T09:10:35.030Z,84.29
2022-12-25T09:13:02.775Z,84.54
2022-12-25T09:15:29.772Z,84.63
2022-12-25T09:17:56.604Z,84.27
2022-12-25T09:20:23.353Z,84.74
2022-12-25T09:22:50.269Z,84.49
2022-12-25T09:25:17.319Z,84.67
2022-12-25T09:27:44.082Z,84.56
2022-12-25T09:30:11.473Z,84.23
2022-12-25T09:32:40.378Z,84.58
2022-12-25T09:35:08.479Z,84.71
2022-12-25T09:37:35.399Z,84.44
2022-12-25T09:40:02.267Z,84.51
2022-12-25T09:42:31.492Z,84.46
2022-12-25T09:45:03.149Z,84.21
2022-12-25T09:47:33.811Z,84.21
2022-12-25T09:50:12.167Z,84.68
2022-12-25T09:52:41.559Z,84.49
2022-12-25T09:55:14.731Z,84.64
2022-12-25T09:57:45.742Z,84.39
2022-12-25T10:00:18.247Z,84.54
2022-12-25T10:02:57.357Z,84.22
2022-12-25T10:05:47.856Z,84.45
2022-12-25T10:08:35.833Z,84.69
2022-12-25T10:11:27.405Z,84.13
2022-12-25T10:14:15.261Z,84.66
2022-12-25T10:17:17.963Z,84.64
2022-12-25T10:20:03.391Z,84.10
2022-12-25T10:23:00.657Z,84.17
2022-12-25T10:25:27.537Z,84.04
2022-12-25T10:28:04.548Z,84.49
2022-12-25T10:30:32.394Z,84.48
2022-12-25T10:32:59.289Z,84.26
2022-12-25T10:35:28.923Z,84.32
2022-12-25T10:37:59.016Z,84.28
2022-12-25T10:40:28.906Z,84.05
2022-12-25T10:43:04.447Z,83.86
2022-12-25T10:45:31.074Z,83.68
2022-12-25T10:48:07.734Z,83.85
2022-12-25T10:50:34.867Z,83.81
2022-12-25T10:53:05.605Z,83.96
2022-12-25T10:55:33.274Z,83.60
2022-12-25T10:58:02.022Z,83.58
2022-12-25T11:00:31.098Z,83.46
2022-12-25T11:02:58.450Z,83.64
2022-12-25T11:05:35.988Z,84.04
2022-12-25T11:08:03.705Z,83.77
2022-12-25T11:10:44.472Z,83.83
2022-12-25T11:13:24.582Z,83.83
2022-12-25T11:16:25.337Z,83.65
2022-12-25T11:18:52.699Z,83.49
2022-12-25T11:21:34.830Z,83.55
2022-12-25T11:24:20.055Z,83.65
2022-12-25T11:26:55.824Z,83.57
2022-12-25T11:29:40.923Z,83.80
2022-12-25T11:32:16.833Z,83.35
2022-12-25T11:34:46.644Z,83.61
2022-12-25T11:37:20.198Z,83.30
2022-12-25T11:39:47.154Z,83.40
2022-12-25T11:42:28.870Z,83.13
2022-12-25T11:44:55.502Z,83.28
2022-12-25T11:47:30.572Z,83.63
2022-12-25T11:50:27.028Z,83.10
2022-12-25T11:52:55.457Z,83.16
2022-12-25T11:55:39.042Z,83.40
2022-12-25T11:58:21.189Z,83.52
2022-12-25T12:00:51.156Z,83.08
2022-12-25T12:03:36.980Z,83.46
2022-12-25T12:06:33.112Z,83.36
2022-12-25T12:09:41.575Z,82.88
2022-12-25T12:12:26.422Z,83.37
2022-12-25T12:15:00.937Z,82.82
2022-12-25T12:17:27.646Z,82.83
2022-12-25T12:19:54.425Z,83.12
2022-12-25T12:22:26.815Z,83.28
2022-12-25T12:25:01.592Z,82.81
2022-12-25T12:27:40.465Z,83.07
2022-12-25T12:30:22.061Z,82.60
2022-12-25T12:32:52.914Z,83.03
2022-12-25T12:35:32.106Z,83.17
2022-12-25T12:38:02.853Z,82.82
2022-12-25T12:40:38.949Z,82.94
2022-12-25T12:43:23.716Z,82.64
2022-12-25T12:45:56.855Z,82.96
2022-12-25T12:48:28.400Z,82.55
2022-12-25T12:51:13.304Z,82.96
2022-12-25T12:53:42.793Z,82.92
2022-12-25T12:56:18.445Z,82.43
2022-12-25T12:58:50.936Z,82.27
2022-12-25T13:01:18.240Z,82.55
2022-12-25T13:04:00.562Z,82.85
2022-12-25T13:06:40.967Z,82.67
2022-12-25T13:09:22.823Z,82.69
2022-12-25T13:11:50.265Z,82.64
2022-12-25T13:14:21.041Z,82.72
2022-12-25T13:16:50.248Z,82.08
2022-12-25T13:19:24.338Z,82.53
2022-12-25T13:22:01.003Z,82.54
2022-12-25T13:24:30.467Z,82.00
2022-12-25T13:26:58.956Z,82.52
2022-12-25T13:29:31.442Z,82.59
2022-12-25T13:32:00.171Z,82.31
2022-12-25T20:32:23.953Z,83.51
2022-12-25T20:34:51.029Z,83.48
2022-12-25T20:37:17.770Z,83.85
2022-12-25T20:39:44.462Z,84.14
2022-12-25T20:42:11.406Z,83.75
2022-12-25T20:44:38.231Z,83.90
2022-12-25T20:47:05.176Z,83.82
2022-12-25T20:49:32.687Z,83.67
2022-12-25T20:52:04.896Z,84.03
2022-12-25T20:54:32.571Z,84.07
2022-12-25T20:56:59.367Z,83.90
2022-12-25T20:59:25.999Z,83.67
2022-12-25T21:01:55.591Z,84.18
2022-12-25T21:04:22.612Z,83.97
2022-12-25T21:06:49.309Z,84.12
2022-12-25T21:09:15.996Z,83.98
2022-12-25T21:11:42.864Z,83.74
2022-12-25T21:14:09.698Z,83.70
2022-12-25T21:16:36.587Z,83.99
2022-12-25T21:19:03.344Z,83.79
2022-12-25T21:21:29.972Z,83.73
2022-12-25T21:23:57.243Z,83.85
2022-12-25T21:26:29.308Z,83.64
2022-12-25T21:29:00.381Z,84.24
2022-12-25T21:31:28.300Z,83.76
2022-12-25T21:33:57.465Z,83.73
2022-12-25T21:36:28.941Z,84.32
2022-12-25T21:39:02.192Z,83.98
2022-12-25T21:41:30.686Z,83.81
2022-12-25T21:43:57.820Z,83.77
2022-12-25T21:46:25.168Z,84.03
2022-12-25T21:48:52.233Z,83.93
2022-12-25T21:51:43.854Z,83.76
2022-12-25T21:54:11.333Z,83.74
2022-12-25T21:56:44.440Z,83.79
2022-12-25T21:59:17.157Z,84.07
2022-12-25T22:01:44.650Z,83.93
2022-12-25T22:04:12.945Z,84.12
2022-12-25T22:06:58.487Z,83.80
2022-12-25T22:09:25.479Z,83.84
2022-12-25T22:12:10.788Z,84.14
2022-12-25T22:14:55.256Z,84.09
2022-12-25T22:17:44.311Z,83.91
2022-12-25T22:20:18.774Z,83.90
2022-12-25T22:22:45.603Z,84.09
2022-12-25T22:25:13.732Z,84.15
2022-12-25T22:27:42.290Z,83.89
2022-12-25T22:30:16.096Z,84.30
2022-12-25T22:32:43.081Z,83.86
2022-12-25T22:35:12.343Z,83.89
2022-12-25T22:37:40.724Z,84.13
2022-12-25T22:40:09.917Z,84.33
2022-12-25T22:42:37.126Z,83.98
2022-12-25T22:45:04.455Z,84.13
2022-12-25T22:47:31.375Z,84.25
2022-12-25T22:49:58.226Z,83.83
2022-12-25T22:52:24.991Z,84.31
2022-12-25T22:54:51.889Z,84.08
2022-12-25T22:57:18.589Z,84.03
2022-12-25T22:59:45.307Z,84.34
2022-12-25T23:02:12.199Z,84.25
2022-12-25T23:04:39.035Z,84.51
2022-12-25T23:07:05.973Z,84.06
2022-12-25T23:09:32.851Z,84.44
2022-12-25T23:11:59.898Z,84.42
2022-12-25T23:14:39.083Z,84.77
2022-12-25T23:17:31.054Z,84.34
2022-12-25T23:20:18.136Z,84.58
2022-12-25T23:23:04.671Z,84.65
2022-12-25T23:25:50.400Z,84.68
2022-12-25T23:28:40.177Z,84.66
2022-12-25T23:31:07.415Z,84.68
2022-12-25T23:33:34.214Z,84.29
2022-12-25T23:36:01.160Z,84.26
2022-12-25T23:38:28.023Z,84.18
2022-12-25T23:40:54.748Z,84.47
2022-12-25T23:43:21.511Z,84.44
2022-12-25T23:45:48.238Z,84.28
2022-12-25T23:48:15.031Z,84.28
2022-12-25T23:50:41.752Z,84.34
2022-12-25T23:53:09.900Z,84.60
2022-12-25T23:55:36.718Z,84.30
2022-12-25T23:58:03.494Z,84.43
